sensor_id;sensor_type;location;lat;lon;timestamp;pressure;altitude;pressure_sealevel;temperature;humidity
12349;BME280;5974;42.710;27.258;2023-09-12T00:00:21;100314.75;;;14.93;100.00
12349;BME280;5974;42.710;27.258;2023-09-12T00:02:50;100328.38;;;15.01;100.00
12349;BME280;5974;42.710;27.258;2023-09-12T00:05:17;100329.97;;;15.03;100.00
12349;BME280;5974;42.710;27.258;2023-09-12T00:07:44;100319.28;;;14.91;100.00
12349;BME280;5974;42.710;27.258;2023-09-12T00:10:10;100327.50;;;15.00;100.00
12349;BME280;5974;42.710;27.258;2023-09-12T00:12:37;100322.75;;;14.91;100.00
12349;BME280;5974;42.710;27.258;2023-09-12T00:15:05;100320.63;;;14.82;100.00
12349;BME280;5974;42.710;27.258;2023-09-12T00:17:32;100305.94;;;14.78;100.00
12349;BME280;5974;42.710;27.258;2023-09-12T00:20:00;100320.69;;;14.81;100.00
12349;BME280;5974;42.710;27.258;2023-09-12T00:22:27;100319.78;;;14.82;100.00
12349;BME280;5974;42.710;27.258;2023-09-12T00:24:54;100314.06;;;14.74;100.00
12349;BME280;5974;42.710;27.258;2023-09-12T00:27:21;100319.41;;;14.56;100.00
12349;BME280;5974;42.710;27.258;2023-09-12T00:29:48;100303.25;;;14.47;100.00
12349;BME280;5974;42.710;27.258;2023-09-12T00:32:14;100314.56;;;14.64;100.00
12349;BME280;5974;42.710;27.258;2023-09-12T00:34:41;100320.19;;;14.74;100.00
12349;BME280;5974;42.710;27.258;2023-09-12T00:37:10;100321.47;;;14.67;100.00
12349;BME280;5974;42.710;27.258;2023-09-12T00:39:37;100323.06;;;14.54;100.00
12349;BME280;5974;42.710;27.258;2023-09-12T00:42:04;100322.13;;;14.55;100.00
12349;BME280;5974;42.710;27.258;2023-09-12T00:44:33;100302.69;;;14.57;100.00
12349;BME280;5974;42.710;27.258;2023-09-12T00:47:00;100321.56;;;14.81;100.00
12349;BME280;5974;42.710;27.258;2023-09-12T00:49:28;100324.19;;;14.81;100.00
12349;BME280;5974;42.710;27.258;2023-09-12T00:51:56;100328.25;;;14.87;100.00
12349;BME280;5974;42.710;27.258;2023-09-12T00:54:25;100335.91;;;14.91;100.00
12349;BME280;5974;42.710;27.258;2023-09-12T00:56:52;100325.47;;;14.90;100.00
12349;BME280;5974;42.710;27.258;2023-09-12T00:59:19;100295.63;;;14.74;100.00
12349;BME280;5974;42.710;27.258;2023-09-12T01:01:47;100298.78;;;14.64;100.00
12349;BME280;5974;42.710;27.258;2023-09-12T01:04:14;100303.44;;;14.59;100.00
12349;BME280;5974;42.710;27.258;2023-09-12T01:06:42;100327.16;;;14.75;100.00
12349;BME280;5974;42.710;27.258;2023-09-12T01:09:09;100328.94;;;14.75;100.00
12349;BME280;5974;42.710;27.258;2023-09-12T01:11:37;100315.34;;;14.67;100.00
12349;BME280;5974;42.710;27.258;2023-09-12T01:14:06;100322.06;;;14.72;100.00
12349;BME280;5974;42.710;27.258;2023-09-12T01:16:33;100314.06;;;14.74;100.00
12349;BME280;5974;42.710;27.258;2023-09-12T01:19:00;100310.66;;;14.72;100.00
12349;BME280;5974;42.710;27.258;2023-09-12T01:24:52;100292.03;;;14.43;100.00
12349;BME280;5974;42.710;27.258;2023-09-12T01:27:32;100309.91;;;14.37;100.00
12349;BME280;5974;42.710;27.258;2023-09-12T01:30:03;100311.66;;;14.21;100.00
12349;BME280;5974;42.710;27.258;2023-09-12T01:32:31;100307.59;;;14.31;100.00
12349;BME280;5974;42.710;27.258;2023-09-12T01:34:59;100317.16;;;14.33;100.00
12349;BME280;5974;42.710;27.258;2023-09-12T01:37:25;100318.19;;;14.29;100.00
12349;BME280;5974;42.710;27.258;2023-09-12T01:39:52;100331.84;;;14.20;100.00
12349;BME280;5974;42.710;27.258;2023-09-12T01:42:21;100300.91;;;14.08;100.00
12349;BME280;5974;42.710;27.258;2023-09-12T01:44:55;100322.53;;;14.47;100.00
12349;BME280;5974;42.710;27.258;2023-09-12T01:47:23;100326.75;;;14.50;100.00
12349;BME280;5974;42.710;27.258;2023-09-12T01:49:52;100322.44;;;14.49;100.00
12349;BME280;5974;42.710;27.258;2023-09-12T01:52:21;100323.22;;;14.34;100.00
12349;BME280;5974;42.710;27.258;2023-09-12T01:54:49;100328.63;;;14.31;100.00
12349;BME280;5974;42.710;27.258;2023-09-12T01:57:17;100313.75;;;14.14;100.00
12349;BME280;5974;42.710;27.258;2023-09-12T01:59:46;100264.66;;;13.97;100.00
12349;BME280;5974;42.710;27.258;2023-09-12T02:02:16;100301.63;;;14.11;100.00
12349;BME280;5974;42.710;27.258;2023-09-12T02:04:48;100317.13;;;14.16;100.00
12349;BME280;5974;42.710;27.258;2023-09-12T02:07:17;100300.84;;;13.92;100.00
12349;BME280;5974;42.710;27.258;2023-09-12T02:09:44;100326.81;;;13.98;100.00
12349;BME280;5974;42.710;27.258;2023-09-12T02:12:11;100310.59;;;13.73;100.00
12349;BME280;5974;42.710;27.258;2023-09-12T02:14:38;100328.22;;;14.05;100.00
12349;BME280;5974;42.710;27.258;2023-09-12T02:17:04;100310.13;;;13.99;100.00
12349;BME280;5974;42.710;27.258;2023-09-12T02:19:33;100333.53;;;14.21;100.00
12349;BME280;5974;42.710;27.258;2023-09-12T02:22:00;100330.66;;;14.26;100.00
12349;BME280;5974;42.710;27.258;2023-09-12T02:24:26;100329.19;;;14.37;100.00
12349;BME280;5974;42.710;27.258;2023-09-12T02:26:53;100329.81;;;14.42;100.00
12349;BME280;5974;42.710;27.258;2023-09-12T02:29:20;100313.69;;;14.31;100.00
12349;BME280;5974;42.710;27.258;2023-09-12T02:31:47;100322.53;;;14.30;100.00
12349;BME280;5974;42.710;27.258;2023-09-12T02:34:14;100322.41;;;14.33;100.00
12349;BME280;5974;42.710;27.258;2023-09-12T02:36:42;100322.25;;;14.36;100.00
12349;BME280;5974;42.710;27.258;2023-09-12T02:39:09;100319.22;;;14.27;100.00
12349;BME280;5974;42.710;27.258;2023-09-12T02:41:36;100293.34;;;14.02;100.00
12349;BME280;5974;42.710;27.258;2023-09-12T02:44:03;100329.38;;;14.17;100.00
12349;BME280;5974;42.710;27.258;2023-09-12T02:46:30;100340.66;;;13.68;100.00
12349;BME280;5974;42.710;27.258;2023-09-12T02:48:57;100334.69;;;14.16;100.00
12349;BME280;5974;42.710;27.258;2023-09-12T02:51:25;100331.66;;;14.23;100.00
12349;BME280;5974;42.710;27.258;2023-09-12T02:53:53;100333.59;;;14.20;100.00
12349;BME280;5974;42.710;27.258;2023-09-12T02:56:20;100329.22;;;14.20;100.00
12349;BME280;5974;42.710;27.258;2023-09-12T02:58:48;100319.53;;;14.21;100.00
12349;BME280;5974;42.710;27.258;2023-09-12T03:01:15;100334.47;;;14.20;100.00
12349;BME280;5974;42.710;27.258;2023-09-12T03:03:42;100331.34;;;14.12;100.00
12349;BME280;5974;42.710;27.258;2023-09-12T03:06:12;100333.09;;;13.96;100.00
12349;BME280;5974;42.710;27.258;2023-09-12T03:08:40;100323.59;;;13.93;100.00
12349;BME280;5974;42.710;27.258;2023-09-12T03:11:08;100330.16;;;14.02;100.00
12349;BME280;5974;42.710;27.258;2023-09-12T03:13:36;100332.09;;;13.98;100.00
12349;BME280;5974;42.710;27.258;2023-09-12T03:16:03;100329.53;;;13.97;100.00
12349;BME280;5974;42.710;27.258;2023-09-12T03:18:30;100344.53;;;13.95;100.00
12349;BME280;5974;42.710;27.258;2023-09-12T03:20:57;100346.84;;;14.01;100.00
12349;BME280;5974;42.710;27.258;2023-09-12T03:23:24;100339.88;;;14.00;100.00
12349;BME280;5974;42.710;27.258;2023-09-12T03:25:51;100347.63;;;13.86;100.00
12349;BME280;5974;42.710;27.258;2023-09-12T03:28:20;100349.78;;;13.78;100.00
12349;BME280;5974;42.710;27.258;2023-09-12T03:30:46;100359.22;;;13.82;100.00
12349;BME280;5974;42.710;27.258;2023-09-12T03:33:13;100349.56;;;13.82;100.00
12349;BME280;5974;42.710;27.258;2023-09-12T03:35:43;100359.59;;;13.74;100.00
12349;BME280;5974;42.710;27.258;2023-09-12T03:38:09;100356.19;;;13.72;100.00
12349;BME280;5974;42.710;27.258;2023-09-12T03:40:37;100357.59;;;13.79;100.00
12349;BME280;5974;42.710;27.258;2023-09-12T03:43:04;100360.91;;;13.83;100.00
12349;BME280;5974;42.710;27.258;2023-09-12T03:45:32;100354.72;;;13.67;100.00
12349;BME280;5974;42.710;27.258;2023-09-12T03:47:59;100329.19;;;13.51;100.00
12349;BME280;5974;42.710;27.258;2023-09-12T03:50:26;100362.59;;;13.67;100.00
12349;BME280;5974;42.710;27.258;2023-09-12T03:52:53;100337.47;;;13.44;100.00
12349;BME280;5974;42.710;27.258;2023-09-12T03:55:19;100361.78;;;13.47;100.00
12349;BME280;5974;42.710;27.258;2023-09-12T03:57:46;100363.66;;;13.45;100.00
12349;BME280;5974;42.710;27.258;2023-09-12T04:00:14;100371.78;;;13.58;100.00
12349;BME280;5974;42.710;27.258;2023-09-12T04:02:42;100372.03;;;13.71;100.00
12349;BME280;5974;42.710;27.258;2023-09-12T04:05:09;100366.88;;;13.86;100.00
12349;BME280;5974;42.710;27.258;2023-09-12T04:07:36;100345.47;;;13.77;100.00
12349;BME280;5974;42.710;27.258;2023-09-12T04:10:04;100368.34;;;14.09;100.00
12349;BME280;5974;42.710;27.258;2023-09-12T04:12:31;100373.38;;;14.13;100.00
12349;BME280;5974;42.710;27.258;2023-09-12T04:14:57;100371.97;;;14.24;100.00
12349;BME280;5974;42.710;27.258;2023-09-12T04:17:24;100373.00;;;14.38;100.00
12349;BME280;5974;42.710;27.258;2023-09-12T04:19:53;100373.28;;;14.49;100.00
12349;BME280;5974;42.710;27.258;2023-09-12T04:22:19;100369.59;;;14.36;100.00
12349;BME280;5974;42.710;27.258;2023-09-12T04:24:46;100371.69;;;14.62;100.00
12349;BME280;5974;42.710;27.258;2023-09-12T04:27:13;100371.41;;;14.84;100.00
12349;BME280;5974;42.710;27.258;2023-09-12T04:29:40;100377.09;;;15.86;100.00
12349;BME280;5974;42.710;27.258;2023-09-12T04:32:07;100359.53;;;17.81;100.00
12349;BME280;5974;42.710;27.258;2023-09-12T04:34:35;100345.88;;;19.74;100.00
12349;BME280;5974;42.710;27.258;2023-09-12T04:37:03;100328.53;;;21.38;100.00
12349;BME280;5974;42.710;27.258;2023-09-12T04:39:31;100325.03;;;22.73;100.00
12349;BME280;5974;42.710;27.258;2023-09-12T04:41:57;100319.28;;;24.32;100.00
12349;BME280;5974;42.710;27.258;2023-09-12T04:44:24;100316.75;;;25.67;96.40
12349;BME280;5974;42.710;27.258;2023-09-12T04:46:51;100330.00;;;26.81;84.44
12349;BME280;5974;42.710;27.258;2023-09-12T04:49:18;100324.31;;;26.84;77.39
12349;BME280;5974;42.710;27.258;2023-09-12T04:51:45;100332.16;;;28.10;75.56
12349;BME280;5974;42.710;27.258;2023-09-12T04:54:13;100329.34;;;28.82;71.59
12349;BME280;5974;42.710;27.258;2023-09-12T04:56:40;100324.81;;;30.50;64.29
12349;BME280;5974;42.710;27.258;2023-09-12T04:59:07;100333.06;;;31.79;60.23
12349;BME280;5974;42.710;27.258;2023-09-12T05:01:33;100322.22;;;32.83;55.70
12349;BME280;5974;42.710;27.258;2023-09-12T05:04:00;100331.09;;;33.72;53.17
12349;BME280;5974;42.710;27.258;2023-09-12T05:06:28;100330.09;;;33.86;51.63
12349;BME280;5974;42.710;27.258;2023-09-12T05:08:55;100312.75;;;34.07;50.69
12349;BME280;5974;42.710;27.258;2023-09-12T05:11:24;100334.44;;;33.61;50.52
12349;BME280;5974;42.710;27.258;2023-09-12T05:13:51;100315.19;;;30.91;54.90
12349;BME280;5974;42.710;27.258;2023-09-12T05:16:18;100331.19;;;29.74;57.76
12349;BME280;5974;42.710;27.258;2023-09-12T05:18:45;100327.06;;;29.33;59.77
12349;BME280;5974;42.710;27.258;2023-09-12T05:21:14;100327.25;;;29.62;58.55
12349;BME280;5974;42.710;27.258;2023-09-12T05:23:41;100329.91;;;29.39;59.41
12349;BME280;5974;42.710;27.258;2023-09-12T05:26:08;100328.13;;;30.52;57.57
12349;BME280;5974;42.710;27.258;2023-09-12T05:28:36;100334.69;;;28.90;59.48
12349;BME280;5974;42.710;27.258;2023-09-12T05:31:03;100326.91;;;29.57;59.29
12349;BME280;5974;42.710;27.258;2023-09-12T05:33:30;100333.44;;;29.63;59.53
12349;BME280;5974;42.710;27.258;2023-09-12T05:35:57;100322.00;;;29.07;59.79
12349;BME280;5974;42.710;27.258;2023-09-12T05:38:24;100334.47;;;29.62;59.05
12349;BME280;5974;42.710;27.258;2023-09-12T05:40:51;100326.91;;;28.95;60.53
12349;BME280;5974;42.710;27.258;2023-09-12T05:43:18;100333.59;;;28.61;61.65
12349;BME280;5974;42.710;27.258;2023-09-12T05:45:47;100333.38;;;29.25;60.86
12349;BME280;5974;42.710;27.258;2023-09-12T05:48:14;100337.88;;;30.38;58.65
12349;BME280;5974;42.710;27.258;2023-09-12T05:50:40;100337.66;;;30.10;58.56
12349;BME280;5974;42.710;27.258;2023-09-12T05:53:08;100335.31;;;30.59;57.85
12349;BME280;5974;42.710;27.258;2023-09-12T05:55:35;100336.34;;;30.58;58.12
12349;BME280;5974;42.710;27.258;2023-09-12T05:58:02;100337.28;;;30.80;57.60
12349;BME280;5974;42.710;27.258;2023-09-12T06:00:31;100337.16;;;31.17;57.34
12349;BME280;5974;42.710;27.258;2023-09-12T06:02:59;100332.22;;;31.57;56.59
12349;BME280;5974;42.710;27.258;2023-09-12T06:05:26;100329.47;;;31.36;56.51
12349;BME280;5974;42.710;27.258;2023-09-12T06:07:53;100318.34;;;32.30;54.31
12349;BME280;5974;42.710;27.258;2023-09-12T06:10:20;100330.63;;;31.84;54.87
12349;BME280;5974;42.710;27.258;2023-09-12T06:12:47;100336.19;;;33.21;52.45
12349;BME280;5974;42.710;27.258;2023-09-12T06:15:15;100333.81;;;32.70;51.57
12349;BME280;5974;42.710;27.258;2023-09-12T06:17:41;100347.97;;;32.10;53.54
12349;BME280;5974;42.710;27.258;2023-09-12T06:20:10;100350.50;;;32.46;52.45
12349;BME280;5974;42.710;27.258;2023-09-12T06:22:37;100330.84;;;31.46;54.19
12349;BME280;5974;42.710;27.258;2023-09-12T06:25:05;100364.72;;;32.76;52.67
12349;BME280;5974;42.710;27.258;2023-09-12T06:27:32;100353.09;;;32.89;52.25
12349;BME280;5974;42.710;27.258;2023-09-12T06:29:59;100343.00;;;32.69;51.71
12349;BME280;5974;42.710;27.258;2023-09-12T06:32:26;100367.41;;;32.48;52.05
12349;BME280;5974;42.710;27.258;2023-09-12T06:34:52;100365.06;;;33.48;51.48
12349;BME280;5974;42.710;27.258;2023-09-12T06:37:21;100377.31;;;34.31;49.68
12349;BME280;5974;42.710;27.258;2023-09-12T06:39:49;100309.34;;;32.98;51.79
12349;BME280;5974;42.710;27.258;2023-09-12T06:42:16;100364.13;;;33.21;52.10
12349;BME280;5974;42.710;27.258;2023-09-12T06:44:43;100339.63;;;32.67;52.92
12349;BME280;5974;42.710;27.258;2023-09-12T06:47:10;100372.25;;;33.15;51.54
12349;BME280;5974;42.710;27.258;2023-09-12T06:49:37;100354.66;;;34.96;48.84
12349;BME280;5974;42.710;27.258;2023-09-12T06:52:04;100376.56;;;35.14;48.06
12349;BME280;5974;42.710;27.258;2023-09-12T06:54:34;100379.38;;;34.03;49.82
12349;BME280;5974;42.710;27.258;2023-09-12T06:57:01;100379.31;;;35.01;48.14
12349;BME280;5974;42.710;27.258;2023-09-12T06:59:28;100371.81;;;37.21;43.43
12349;BME280;5974;42.710;27.258;2023-09-12T07:01:55;100364.75;;;38.44;42.52
12349;BME280;5974;42.710;27.258;2023-09-12T07:04:22;100378.63;;;37.30;43.36
12349;BME280;5974;42.710;27.258;2023-09-12T07:06:49;100390.53;;;39.06;40.48
12349;BME280;5974;42.710;27.258;2023-09-12T07:09:16;100381.28;;;38.49;41.84
12349;BME280;5974;42.710;27.258;2023-09-12T07:11:46;100384.94;;;39.13;39.49
12349;BME280;5974;42.710;27.258;2023-09-12T07:14:13;100387.00;;;38.36;40.69
12349;BME280;5974;42.710;27.258;2023-09-12T07:16:40;100395.38;;;37.81;41.81
12349;BME280;5974;42.710;27.258;2023-09-12T07:19:08;100393.72;;;36.96;42.24
12349;BME280;5974;42.710;27.258;2023-09-12T07:21:35;100388.06;;;37.16;42.07
12349;BME280;5974;42.710;27.258;2023-09-12T07:24:02;100384.41;;;36.85;41.60
12349;BME280;5974;42.710;27.258;2023-09-12T07:26:29;100388.03;;;38.23;41.23
12349;BME280;5974;42.710;27.258;2023-09-12T07:28:57;100388.84;;;39.85;38.56
12349;BME280;5974;42.710;27.258;2023-09-12T07:31:28;100392.38;;;40.64;36.78
12349;BME280;5974;42.710;27.258;2023-09-12T07:33:55;100386.19;;;37.16;41.53
12349;BME280;5974;42.710;27.258;2023-09-12T07:36:22;100384.31;;;32.78;48.28
12349;BME280;5974;42.710;27.258;2023-09-12T07:38:48;100389.63;;;30.79;52.31
12349;BME280;5974;42.710;27.258;2023-09-12T07:41:15;100385.06;;;29.82;57.09
12349;BME280;5974;42.710;27.258;2023-09-12T07:43:42;100374.63;;;28.71;57.92
12349;BME280;5974;42.710;27.258;2023-09-12T07:46:10;100371.81;;;29.42;57.56
12349;BME280;5974;42.710;27.258;2023-09-12T07:48:37;100389.13;;;28.05;63.36
12349;BME280;5974;42.710;27.258;2023-09-12T07:51:11;100386.69;;;27.70;61.78
12349;BME280;5974;42.710;27.258;2023-09-12T07:53:39;100372.94;;;27.65;63.55
12349;BME280;5974;42.710;27.258;2023-09-12T07:56:08;100387.25;;;28.06;60.06
12349;BME280;5974;42.710;27.258;2023-09-12T07:58:35;100388.75;;;28.00;59.59
12349;BME280;5974;42.710;27.258;2023-09-12T08:01:05;100373.59;;;27.67;58.66
12349;BME280;5974;42.710;27.258;2023-09-12T08:03:34;100380.09;;;27.48;59.53
12349;BME280;5974;42.710;27.258;2023-09-12T08:06:02;100382.06;;;28.20;58.63
12349;BME280;5974;42.710;27.258;2023-09-12T08:08:29;100386.38;;;27.73;60.52
12349;BME280;5974;42.710;27.258;2023-09-12T08:10:56;100376.53;;;27.39;62.24
12349;BME280;5974;42.710;27.258;2023-09-12T08:13:25;100384.69;;;27.64;64.15
12349;BME280;5974;42.710;27.258;2023-09-12T08:15:52;100381.72;;;27.99;58.71
12349;BME280;5974;42.710;27.258;2023-09-12T08:18:19;100383.16;;;27.69;60.11
12349;BME280;5974;42.710;27.258;2023-09-12T08:20:47;100379.63;;;27.53;61.16
12349;BME280;5974;42.710;27.258;2023-09-12T08:23:14;100387.72;;;27.85;60.63
12349;BME280;5974;42.710;27.258;2023-09-12T08:25:41;100383.03;;;27.95;60.51
12349;BME280;5974;42.710;27.258;2023-09-12T08:28:07;100357.16;;;27.94;60.05
12349;BME280;5974;42.710;27.258;2023-09-12T08:30:34;100383.06;;;28.19;56.93
12349;BME280;5974;42.710;27.258;2023-09-12T08:33:01;100350.13;;;28.17;57.04
12349;BME280;5974;42.710;27.258;2023-09-12T08:35:29;100372.94;;;27.65;60.05
12349;BME280;5974;42.710;27.258;2023-09-12T08:37:57;100371.91;;;27.58;59.46
12349;BME280;5974;42.710;27.258;2023-09-12T08:40:24;100355.25;;;27.46;61.16
12349;BME280;5974;42.710;27.258;2023-09-12T08:42:52;100376.94;;;27.53;60.68
12349;BME280;5974;42.710;27.258;2023-09-12T08:45:19;100367.41;;;27.98;57.86
12349;BME280;5974;42.710;27.258;2023-09-12T08:47:50;100366.84;;;27.55;58.39
12349;BME280;5974;42.710;27.258;2023-09-12T08:50:17;100375.69;;;28.05;58.38
12349;BME280;5974;42.710;27.258;2023-09-12T08:52:46;100365.44;;;27.34;61.42
12349;BME280;5974;42.710;27.258;2023-09-12T08:55:14;100373.13;;;27.29;60.43
12349;BME280;5974;42.710;27.258;2023-09-12T08:57:42;100369.13;;;27.41;59.94
12349;BME280;5974;42.710;27.258;2023-09-12T09:00:10;100363.19;;;27.88;59.72
12349;BME280;5974;42.710;27.258;2023-09-12T09:02:40;100364.59;;;28.08;59.88
12349;BME280;5974;42.710;27.258;2023-09-12T09:05:08;100365.22;;;28.50;57.34
12349;BME280;5974;42.710;27.258;2023-09-12T09:07:36;100360.19;;;27.91;57.93
12349;BME280;5974;42.710;27.258;2023-09-12T09:10:05;100368.59;;;27.80;59.41
12349;BME280;5974;42.710;27.258;2023-09-12T09:12:34;100362.69;;;27.76;62.04
12349;BME280;5974;42.710;27.258;2023-09-12T09:15:20;100361.88;;;28.32;59.24
12349;BME280;5974;42.710;27.258;2023-09-12T09:17:48;100320.72;;;28.16;60.68
12349;BME280;5974;42.710;27.258;2023-09-12T09:20:22;100359.81;;;27.70;58.89
12349;BME280;5974;42.710;27.258;2023-09-12T09:23:00;100354.81;;;27.91;59.58
12349;BME280;5974;42.710;27.258;2023-09-12T09:25:30;100353.47;;;27.87;62.39
12349;BME280;5974;42.710;27.258;2023-09-12T09:27:58;100356.13;;;27.63;61.23
12349;BME280;5974;42.710;27.258;2023-09-12T09:30:41;100358.00;;;27.86;63.45
12349;BME280;5974;42.710;27.258;2023-09-12T09:33:09;100351.25;;;28.47;58.75
12349;BME280;5974;42.710;27.258;2023-09-12T09:35:36;100306.50;;;27.41;60.25
12349;BME280;5974;42.710;27.258;2023-09-12T09:38:06;100345.06;;;28.22;60.72
12349;BME280;5974;42.710;27.258;2023-09-12T09:40:33;100349.09;;;27.94;60.73
12349;BME280;5974;42.710;27.258;2023-09-12T09:43:03;100341.69;;;27.88;60.84
12349;BME280;5974;42.710;27.258;2023-09-12T09:45:31;100338.66;;;28.47;62.85
12349;BME280;5974;42.710;27.258;2023-09-12T09:47:58;100306.06;;;28.18;62.00
12349;BME280;5974;42.710;27.258;2023-09-12T09:50:26;100323.91;;;28.19;61.67
12349;BME280;5974;42.710;27.258;2023-09-12T09:52:55;100332.38;;;28.63;61.56
12349;BME280;5974;42.710;27.258;2023-09-12T09:55:23;100327.38;;;28.44;61.32
12349;BME280;5974;42.710;27.258;2023-09-12T09:57:50;100340.34;;;27.76;62.36
12349;BME280;5974;42.710;27.258;2023-09-12T10:00:22;100337.38;;;28.11;62.79
12349;BME280;5974;42.710;27.258;2023-09-12T10:02:50;100343.19;;;29.10;61.19
12349;BME280;5974;42.710;27.258;2023-09-12T10:05:18;100331.50;;;29.26;59.34
12349;BME280;5974;42.710;27.258;2023-09-12T10:07:48;100334.00;;;29.58;56.57
12349;BME280;5974;42.710;27.258;2023-09-12T10:10:16;100319.31;;;28.44;59.25
12349;BME280;5974;42.710;27.258;2023-09-12T10:12:48;100327.19;;;28.70;62.92
12349;BME280;5974;42.710;27.258;2023-09-12T10:15:20;100322.06;;;28.83;59.07
12349;BME280;5974;42.710;27.258;2023-09-12T10:17:55;100308.22;;;29.33;58.23
12349;BME280;5974;42.710;27.258;2023-09-12T10:20:25;100319.72;;;30.32;57.02
12349;BME280;5974;42.710;27.258;2023-09-12T10:23:01;100261.66;;;30.22;55.48
12349;BME280;5974;42.710;27.258;2023-09-12T10:25:34;100319.78;;;31.05;56.29
12349;BME280;5974;42.710;27.258;2023-09-12T10:28:03;100312.13;;;30.65;58.19
12349;BME280;5974;42.710;27.258;2023-09-12T10:30:32;100300.41;;;30.43;54.84
12349;BME280;5974;42.710;27.258;2023-09-12T10:33:00;100319.16;;;30.37;54.58
12349;BME280;5974;42.710;27.258;2023-09-12T10:35:30;100320.38;;;28.90;56.87
12349;BME280;5974;42.710;27.258;2023-09-12T10:37:59;100312.94;;;29.00;59.63
12349;BME280;5974;42.710;27.258;2023-09-12T10:40:27;100311.34;;;29.44;59.85
12349;BME280;5974;42.710;27.258;2023-09-12T10:42:55;100309.47;;;29.14;59.12
12349;BME280;5974;42.710;27.258;2023-09-12T10:45:22;100295.63;;;28.94;58.77
12349;BME280;5974;42.710;27.258;2023-09-12T10:47:51;100315.28;;;28.40;58.36
12349;BME280;5974;42.710;27.258;2023-09-12T10:50:19;100307.91;;;28.26;58.40
12349;BME280;5974;42.710;27.258;2023-09-12T10:52:46;100301.56;;;28.82;58.25
12349;BME280;5974;42.710;27.258;2023-09-12T10:55:16;100297.75;;;29.07;61.23
12349;BME280;5974;42.710;27.258;2023-09-12T10:58:03;100291.25;;;28.93;59.18
12349;BME280;5974;42.710;27.258;2023-09-12T11:00:31;100291.53;;;28.98;61.09
12349;BME280;5974;42.710;27.258;2023-09-12T11:06:21;100296.69;;;29.16;61.62
12349;BME280;5974;42.710;27.258;2023-09-12T11:09:16;100286.13;;;30.20;59.45
12349;BME280;5974;42.710;27.258;2023-09-12T11:11:45;100277.00;;;29.08;58.58
12349;BME280;5974;42.710;27.258;2023-09-12T11:14:13;100281.97;;;28.96;59.03
12349;BME280;5974;42.710;27.258;2023-09-12T11:16:41;100284.50;;;28.50;59.56
12349;BME280;5974;42.710;27.258;2023-09-12T11:19:17;100273.53;;;28.60;61.01
12349;BME280;5974;42.710;27.258;2023-09-12T11:21:47;100273.25;;;28.86;59.31
12349;BME280;5974;42.710;27.258;2023-09-12T11:24:16;100283.59;;;29.05;60.83
12349;BME280;5974;42.710;27.258;2023-09-12T11:26:53;100276.06;;;29.23;58.24
12349;BME280;5974;42.710;27.258;2023-09-12T11:29:26;100280.50;;;29.92;58.51
12349;BME280;5974;42.710;27.258;2023-09-12T11:31:57;100247.03;;;28.80;58.91
12349;BME280;5974;42.710;27.258;2023-09-12T11:34:30;100278.41;;;28.65;59.23
12349;BME280;5974;42.710;27.258;2023-09-12T11:37:03;100275.00;;;29.10;60.74
12349;BME280;5974;42.710;27.258;2023-09-12T11:39:32;100266.06;;;29.09;59.37
12349;BME280;5974;42.710;27.258;2023-09-12T11:42:00;100275.75;;;28.48;61.82
12349;BME280;5974;42.710;27.258;2023-09-12T11:44:28;100269.56;;;28.32;63.09
12349;BME280;5974;42.710;27.258;2023-09-12T11:46:59;100260.25;;;28.67;62.71
12349;BME280;5974;42.710;27.258;2023-09-12T11:49:35;100267.94;;;28.62;61.41
12349;BME280;5974;42.710;27.258;2023-09-12T11:52:07;100262.75;;;28.05;62.47
12349;BME280;5974;42.710;27.258;2023-09-12T11:54:34;100271.97;;;27.94;64.52
12349;BME280;5974;42.710;27.258;2023-09-12T11:57:02;100263.06;;;28.10;62.22
12349;BME280;5974;42.710;27.258;2023-09-12T11:59:29;100267.28;;;27.80;65.30
12349;BME280;5974;42.710;27.258;2023-09-12T12:01:56;100265.59;;;27.47;65.54
12349;BME280;5974;42.710;27.258;2023-09-12T12:04:25;100237.84;;;27.38;65.59
12349;BME280;5974;42.710;27.258;2023-09-12T12:06:54;100265.75;;;27.70;64.18
12349;BME280;5974;42.710;27.258;2023-09-12T12:09:21;100245.63;;;27.58;66.70
12349;BME280;5974;42.710;27.258;2023-09-12T12:11:48;100195.53;;;27.32;65.23
12349;BME280;5974;42.710;27.258;2023-09-12T12:14:16;100244.75;;;27.97;64.28
12349;BME280;5974;42.710;27.258;2023-09-12T12:16:45;100257.19;;;27.66;66.43
12349;BME280;5974;42.710;27.258;2023-09-12T12:19:13;100256.34;;;27.66;67.79
12349;BME280;5974;42.710;27.258;2023-09-12T12:21:41;100260.41;;;27.78;66.26
12349;BME280;5974;42.710;27.258;2023-09-12T12:24:10;100251.31;;;27.87;66.23
12349;BME280;5974;42.710;27.258;2023-09-12T12:26:38;100256.38;;;27.50;66.26
12349;BME280;5974;42.710;27.258;2023-09-12T12:29:07;100240.53;;;27.38;67.80
12349;BME280;5974;42.710;27.258;2023-09-12T12:31:34;100257.19;;;27.66;67.68
12349;BME280;5974;42.710;27.258;2023-09-12T12:34:01;100248.78;;;28.02;67.32
12349;BME280;5974;42.710;27.258;2023-09-12T12:36:29;100252.81;;;27.57;66.37
12349;BME280;5974;42.710;27.258;2023-09-12T12:38:56;100256.00;;;27.28;67.39
12349;BME280;5974;42.710;27.258;2023-09-12T12:41:25;100250.41;;;27.14;67.80
12349;BME280;5974;42.710;27.258;2023-09-12T12:43:53;100257.03;;;27.43;69.33
12349;BME280;5974;42.710;27.258;2023-09-12T12:46:24;100256.19;;;27.67;66.44
12349;BME280;5974;42.710;27.258;2023-09-12T12:48:51;100249.16;;;27.58;67.55
12349;BME280;5974;42.710;27.258;2023-09-12T12:51:20;100243.41;;;27.69;66.28
12349;BME280;5974;42.710;27.258;2023-09-12T12:53:50;100254.16;;;27.93;65.95
12349;BME280;5974;42.710;27.258;2023-09-12T12:56:19;100256.19;;;27.67;66.08